createdAt,value
2018-08-20T00:01:00.115Z,64.14
2018-08-20T00:03:30.435Z,64.40
2018-08-20T00:05:58.528Z,64.06
2018-08-20T00:08:26.586Z,65.82
2018-08-20T00:10:57.258Z,64.94
2018-08-20T00:13:26.052Z,65.18
2018-08-20T00:15:54.584Z,65.15
2018-08-20T00:18:27.931Z,65.97
2018-08-20T00:20:56.005Z,66.74
2018-08-20T00:23:24.672Z,67.08
2018-08-20T00:25:55.595Z,67.27
2018-08-20T00:28:23.647Z,67.55
2018-08-20T00:30:58.450Z,67.18
2018-08-20T00:33:26.566Z,67.35
2018-08-20T00:35:54.635Z,68.09
2018-08-20T00:38:22.696Z,67.98
2018-08-20T00:40:50.774Z,67.86
2018-08-20T00:43:18.872Z,68.32
2018-08-20T00:45:46.988Z,67.99
2018-08-20T00:48:15.050Z,67.72
2018-08-20T00:50:43.149Z,68.23
2018-08-20T00:53:11.225Z,68.80
2018-08-20T00:55:39.296Z,69.02
2018-08-20T00:58:07.351Z,68.81
2018-08-20T01:00:35.451Z,68.96
2018-08-20T01:03:03.521Z,68.51
2018-08-20T01:05:31.578Z,68.84
2018-08-20T01:07:59.660Z,69.54
2018-08-20T01:10:27.739Z,69.13
2018-08-20T01:12:55.804Z,70.17
2018-08-20T01:15:23.875Z,70.34
2018-08-20T01:17:51.956Z,70.59
2018-08-20T01:20:20.097Z,70.65
2018-08-20T01:22:48.179Z,71.21
2018-08-20T01:25:16.234Z,70.50
2018-08-20T01:27:49.797Z,70.29
2018-08-20T01:30:17.991Z,70.92
2018-08-20T01:32:46.076Z,70.43
2018-08-20T01:35:24.871Z,71.27
2018-08-20T01:37:52.952Z,71.91
2018-08-20T01:40:21.134Z,71.21
2018-08-20T01:42:49.199Z,71.37
2018-08-20T01:45:17.695Z,71.67
2018-08-20T01:47:45.759Z,72.08
2018-08-20T01:50:13.834Z,71.88
2018-08-20T01:52:41.933Z,72.13
2018-08-20T01:55:09.982Z,70.74
2018-08-20T01:57:38.052Z,71.11
2018-08-20T02:00:06.486Z,71.71
2018-08-20T02:02:34.548Z,72.58
2018-08-20T02:05:02.609Z,72.23
2018-08-20T02:07:30.726Z,72.77
2018-08-20T02:09:58.791Z,73.36
2018-08-20T02:12:26.871Z,72.74
2018-08-20T02:14:54.940Z,70.85
2018-08-20T02:17:23.059Z,70.14
2018-08-20T02:19:51.104Z,69.94
2018-08-20T02:22:19.240Z,70.00
2018-08-20T02:24:47.307Z,71.27
2018-08-20T02:27:15.392Z,72.31
2018-08-20T02:29:43.445Z,72.20
2018-08-20T02:32:11.512Z,72.29
2018-08-20T02:34:39.569Z,73.27
2018-08-20T02:37:07.664Z,73.13
2018-08-20T02:39:35.731Z,72.68
2018-08-20T02:42:03.808Z,73.19
2018-08-20T02:44:31.859Z,72.91
2018-08-20T02:46:59.943Z,72.93
2018-08-20T02:49:28.026Z,73.11
2018-08-20T02:51:56.103Z,73.22
2018-08-20T02:54:24.175Z,73.71
2018-08-20T02:56:52.263Z,74.12
2018-08-20T02:59:20.398Z,73.54
2018-08-20T03:01:48.518Z,73.83
2018-08-20T03:04:16.594Z,74.17
2018-08-20T03:06:44.635Z,74.30
2018-08-20T03:09:15.011Z,74.90
2018-08-20T03:11:43.065Z,74.41
2018-08-20T03:14:11.719Z,74.56
2018-08-20T03:16:39.815Z,74.54
2018-08-20T03:19:08.896Z,74.98
2018-08-20T03:21:36.968Z,74.98
2018-08-20T03:24:05.111Z,74.68
2018-08-20T03:26:33.156Z,74.01
2018-08-20T03:29:01.427Z,74.77
2018-08-20T03:31:29.745Z,74.96
2018-08-20T03:33:57.872Z,74.94
2018-08-20T03:36:26.059Z,75.89
2018-08-20T03:38:54.136Z,75.53
2018-08-20T03:41:22.208Z,74.99
2018-08-20T03:43:50.633Z,75.31
2018-08-20T03:46:18.702Z,75.86
2018-08-20T03:48:46.802Z,76.27
2018-08-20T03:51:14.869Z,76.56
2018-08-20T03:53:42.960Z,76.54
2018-08-20T03:56:11.051Z,75.85
2018-08-20T03:58:39.137Z,76.41
2018-08-20T04:01:07.204Z,76.08
2018-08-20T04:03:35.295Z,75.85
2018-08-20T04:06:03.741Z,75.60
2018-08-20T04:08:31.800Z,75.85
2018-08-20T04:11:00.039Z,76.05
2018-08-20T04:13:28.131Z,76.96
2018-08-20T04:15:56.200Z,76.80
2018-08-20T04:18:24.271Z,75.77
2018-08-20T04:20:52.360Z,76.06
2018-08-20T04:23:20.452Z,75.75
2018-08-20T04:25:48.535Z,76.24
2018-08-20T04:28:16.627Z,77.48
2018-08-20T04:30:44.751Z,77.04
2018-08-20T04:33:12.796Z,76.52
2018-08-20T04:35:40.888Z,77.60
2018-08-20T04:38:08.989Z,77.00
2018-08-20T04:40:37.114Z,76.99
2018-08-20T04:43:05.191Z,76.11
2018-08-20T04:45:33.295Z,76.47
2018-08-20T04:48:01.350Z,76.79
2018-08-20T04:50:29.633Z,77.88
2018-08-20T04:52:57.483Z,78.37
2018-08-20T04:55:25.550Z,77.78
2018-08-20T04:57:53.676Z,77.53
2018-08-20T05:00:21.779Z,77.34
2018-08-20T05:02:49.851Z,77.09
2018-08-20T05:05:17.924Z,77.24
2018-08-20T05:07:46.018Z,77.66
2018-08-20T05:10:14.085Z,77.43
2018-08-20T05:12:42.143Z,77.34
2018-08-20T05:15:10.225Z,77.43
2018-08-20T05:17:38.302Z,77.36
2018-08-20T05:20:07.027Z,77.24
2018-08-20T05:22:35.148Z,77.96
2018-08-20T05:25:03.201Z,77.49
2018-08-20T05:27:31.273Z,77.55
2018-08-20T05:29:59.346Z,77.34
2018-08-20T05:32:27.404Z,76.42
2018-08-20T05:34:55.487Z,77.05
2018-08-20T05:37:23.552Z,77.12
2018-08-20T05:39:51.684Z,76.82
2018-08-20T05:42:19.744Z,76.18
2018-08-20T05:44:47.818Z,76.07
2018-08-20T05:47:15.932Z,75.68
2018-08-20T05:49:43.995Z,76.00
2018-08-20T05:52:12.067Z,75.74
2018-08-20T05:54:40.128Z,75.77
2018-08-20T05:57:08.360Z,75.04
2018-08-20T05:59:36.439Z,74.38
2018-08-20T06:02:04.526Z,74.01
2018-08-20T06:04:32.600Z,74.00
2018-08-20T06:07:00.656Z,74.84
2018-08-20T06:09:28.736Z,74.28
2018-08-20T06:11:56.783Z,74.18
2018-08-20T06:14:24.873Z,73.42
2018-08-20T06:16:52.958Z,72.80
2018-08-20T06:19:21.051Z,73.06
2018-08-20T06:21:49.124Z,70.63
2018-08-20T06:24:17.247Z,71.22
2018-08-20T06:26:45.332Z,70.48
2018-08-20T06:29:13.444Z,70.41
2018-08-20T06:31:41.508Z,70.28
2018-08-20T06:34:09.626Z,69.95
2018-08-20T06:36:37.695Z,69.90
2018-08-20T06:39:07.523Z,70.41
2018-08-20T06:41:35.614Z,70.19
2018-08-20T06:44:03.787Z,69.22
2018-08-20T06:46:31.851Z,69.39
2018-08-20T06:48:59.943Z,68.04
2018-08-20T06:51:28.014Z,68.45
2018-08-20T06:53:56.245Z,68.01
2018-08-20T06:56:24.314Z,66.86
2018-08-20T06:58:52.379Z,66.92
2018-08-20T07:01:20.443Z,66.92
2018-08-20T07:03:48.528Z,66.07
2018-08-20T07:06:16.649Z,65.33
2018-08-20T07:08:44.694Z,64.74
2018-08-20T07:11:12.790Z,64.59
2018-08-20T07:13:40.853Z,65.06
2018-08-20T07:16:09.243Z,63.48
2018-08-20T07:18:37.311Z,62.88
2018-08-20T07:21:05.396Z,62.05
2018-08-20T07:23:33.593Z,62.46
2018-08-20T07:26:01.565Z,62.60
2018-08-20T07:28:29.660Z,61.20
2018-08-20T07:30:57.878Z,60.13
2018-08-20T07:33:25.997Z,60.00
2018-08-20T07:35:54.116Z,59.20
2018-08-20T07:38:22.224Z,59.79
2018-08-20T07:40:50.400Z,58.73
2018-08-20T07:43:18.487Z,58.82
2018-08-20T07:45:46.611Z,59.31
2018-08-20T07:48:14.842Z,59.21
2018-08-20T07:50:42.971Z,59.09
2018-08-20T07:53:11.034Z,58.40
2018-08-20T07:55:39.157Z,58.23
2018-08-20T07:58:07.552Z,58.89
2018-08-20T08:00:35.644Z,59.46
2018-08-20T08:03:03.774Z,58.86
2018-08-20T08:05:31.856Z,58.30
2018-08-20T08:07:59.915Z,57.73
2018-08-20T08:10:28.100Z,58.06
2018-08-20T08:12:56.256Z,57.84
2018-08-20T08:15:24.336Z,56.54
2018-08-20T08:17:52.483Z,57.73
2018-08-20T08:20:20.485Z,56.70
2018-08-20T08:22:48.559Z,56.88
2018-08-20T08:25:16.667Z,57.33
2018-08-20T08:27:44.771Z,57.85
2018-08-20T08:30:18.047Z,57.66
2018-08-20T08:32:46.515Z,56.89
2018-08-20T08:35:14.918Z,57.35
2018-08-20T08:37:43.159Z,58.05
2018-08-20T08:40:12.896Z,58.27
2018-08-20T08:42:40.968Z,56.87
2018-08-20T08:45:12.391Z,57.21
2018-08-20T08:47:40.755Z,55.70
2018-08-20T08:50:08.957Z,56.54
2018-08-20T08:52:37.117Z,56.11
2018-08-20T08:55:05.958Z,56.01
2018-08-20T08:57:34.083Z,56.72
2018-08-20T09:00:02.236Z,57.10
2018-08-20T09:02:30.348Z,57.78
2018-08-20T09:04:58.436Z,58.92
2018-08-20T09:07:26.541Z,57.73
2018-08-20T09:09:54.651Z,57.66
2018-08-20T09:12:22.751Z,57.37
2018-08-20T09:14:50.867Z,57.53
2018-08-20T09:17:18.983Z,57.51
2018-08-20T09:19:47.724Z,56.99
2018-08-20T09:22:15.925Z,57.80
2018-08-20T09:24:44.154Z,57.76
2018-08-20T09:27:12.353Z,57.70
2018-08-20T09:29:40.560Z,57.87
2018-08-20T09:32:08.835Z,58.13
2018-08-20T09:34:36.971Z,58.17
2018-08-20T09:37:05.095Z,58.57
2018-08-20T09:39:33.284Z,57.72
2018-08-20T09:42:01.408Z,56.69
2018-08-20T09:44:29.630Z,56.26
2018-08-20T09:46:57.783Z,56.40
2018-08-20T09:49:25.903Z,56.71
2018-08-20T09:51:54.132Z,57.10
2018-08-20T09:54:22.380Z,57.17
2018-08-20T09:56:50.680Z,57.14
2018-08-20T09:59:18.871Z,56.62
2018-08-20T10:01:47.088Z,56.27
2018-08-20T10:07:17.766Z,55.43
2018-08-20T10:09:45.974Z,55.57
2018-08-20T10:12:14.131Z,56.20
2018-08-20T10:14:42.262Z,55.65
2018-08-20T10:17:10.364Z,54.63
2018-08-20T10:19:39.463Z,54.59
2018-08-20T10:22:07.591Z,54.19
2018-08-20T10:24:35.819Z,54.82
2018-08-20T10:27:03.879Z,55.37
2018-08-20T10:29:31.979Z,54.57
2018-08-20T10:32:00.089Z,52.71
2018-08-20T10:34:28.136Z,52.64
2018-08-20T10:36:56.223Z,52.79
2018-08-20T10:39:24.305Z,53.22
2018-08-20T10:41:52.394Z,52.44
2018-08-20T10:44:20.443Z,53.28
2018-08-20T10:46:48.529Z,52.74
2018-08-20T10:49:17.192Z,51.78
2018-08-20T10:51:45.259Z,51.45
2018-08-20T10:54:13.440Z,52.83
2018-08-20T10:56:42.449Z,52.00
2018-08-20T10:59:10.552Z,52.24
2018-08-20T11:01:38.980Z,51.35
2018-08-20T11:04:07.464Z,51.77
2018-08-20T11:06:35.531Z,51.92
2018-08-20T11:09:03.783Z,51.36
2018-08-20T11:11:38.209Z,49.03
2018-08-20T11:14:09.703Z,48.68
2018-08-20T11:16:41.526Z,50.54
2018-08-20T11:19:10.649Z,48.65
2018-08-20T11:21:38.741Z,48.59
2018-08-20T11:24:06.832Z,48.35
2018-08-20T11:26:34.916Z,49.11
2018-08-20T11:29:03.059Z,48.65
2018-08-20T11:31:31.176Z,48.17
2018-08-20T11:33:59.258Z,48.11
2018-08-20T11:36:27.370Z,48.77
2018-08-20T11:38:55.443Z,46.95
2018-08-20T11:41:23.528Z,47.54
2018-08-20T11:43:51.611Z,48.52
2018-08-20T11:46:19.671Z,46.84
2018-08-20T11:48:47.748Z,48.14
2018-08-20T11:51:15.802Z,47.01
2018-08-20T11:53:44.185Z,46.79
2018-08-20T11:56:12.253Z,46.82
2018-08-20T11:58:40.341Z,46.95
2018-08-20T12:01:08.584Z,46.59
2018-08-20T12:03:36.649Z,46.32
2018-08-20T12:06:09.235Z,46.45
2018-08-20T12:08:37.309Z,44.75
2018-08-20T12:11:05.920Z,45.62
2018-08-20T12:13:34.025Z,44.20
2018-08-20T12:16:02.127Z,44.04
2018-08-20T12:18:34.087Z,43.54
2018-08-20T12:21:02.192Z,44.58
2018-08-20T12:23:30.631Z,43.11
2018-08-20T12:25:58.804Z,42.91
2018-08-20T12:28:26.891Z,42.71
2018-08-20T12:30:55.007Z,44.02
2018-08-20T12:33:23.119Z,42.82
2018-08-20T12:35:51.235Z,44.23
2018-08-20T12:38:19.344Z,43.99
2018-08-20T12:40:47.451Z,44.42
2018-08-20T12:43:15.549Z,43.38
2018-08-20T12:45:43.594Z,43.42
2018-08-20T12:48:11.648Z,43.46
2018-08-20T12:50:39.750Z,42.72
2018-08-20T12:53:07.944Z,43.94
2018-08-20T12:55:36.051Z,43.55
2018-08-20T12:58:04.132Z,44.19
2018-08-20T13:00:32.247Z,42.90
2018-08-20T13:03:00.274Z,42.84
2018-08-20T13:05:28.349Z,41.91
2018-08-20T13:08:03.040Z,43.14
2018-08-20T13:10:31.105Z,41.78
2018-08-20T13:12:59.164Z,42.24
2018-08-20T13:15:27.231Z,42.82
2018-08-20T13:17:55.300Z,43.74
2018-08-20T13:20:23.383Z,43.72
2018-08-20T13:22:51.449Z,43.30
2018-08-20T13:25:19.518Z,43.12
2018-08-20T13:27:47.580Z,43.41
2018-08-20T13:30:15.648Z,42.42
2018-08-20T13:32:43.729Z,42.14
2018-08-20T13:35:11.807Z,42.94
2018-08-20T13:37:39.919Z,42.49
2018-08-20T13:40:07.985Z,43.51
2018-08-20T13:42:36.047Z,42.64
2018-08-20T13:45:04.293Z,43.00
2018-08-20T13:47:32.384Z,42.43
2018-08-20T13:50:05.859Z,41.68
2018-08-20T13:52:34.641Z,41.43
2018-08-20T13:55:02.900Z,41.84
2018-08-20T13:57:35.273Z,42.25
2018-08-20T14:00:03.528Z,42.36
2018-08-20T14:02:31.727Z,42.04
2018-08-20T14:04:59.932Z,42.81
2018-08-20T14:07:28.120Z,44.00
2018-08-20T14:09:56.324Z,43.37
2018-08-20T14:12:25.016Z,42.67
2018-08-20T14:14:53.224Z,42.18
2018-08-20T14:17:21.420Z,42.88
2018-08-20T14:19:49.657Z,42.22
2018-08-20T14:22:17.827Z,41.32
2018-08-20T14:24:46.083Z,42.15
2018-08-20T14:27:14.318Z,41.96
2018-08-20T14:29:42.539Z,41.81
2018-08-20T14:32:13.752Z,41.75
2018-08-20T14:34:41.945Z,42.34
2018-08-20T14:37:10.130Z,41.14
2018-08-20T14:39:38.429Z,41.36
2018-08-20T14:42:06.963Z,41.43
2018-08-20T14:44:35.150Z,41.53
2018-08-20T14:47:03.873Z,41.17
2018-08-20T14:49:54.184Z,42.11
2018-08-20T14:52:23.957Z,42.68
2018-08-20T14:54:57.027Z,41.17
2018-08-20T14:57:25.215Z,42.07
2018-08-20T14:59:53.973Z,41.15
2018-08-20T15:02:39.164Z,42.10
2018-08-20T15:05:08.905Z,42.48
2018-08-20T15:07:37.823Z,41.57
2018-08-20T15:10:23.393Z,42.29
2018-08-20T15:12:56.964Z,41.54
2018-08-20T15:15:26.250Z,41.96
2018-08-20T15:21:14.283Z,41.46
2018-08-20T15:26:44.295Z,43.96
2018-08-20T15:32:08.251Z,43.01
2018-08-20T15:40:21.576Z,43.93
2018-08-20T15:42:49.788Z,44.23
2018-08-20T15:45:18.007Z,44.32
2018-08-20T15:47:46.184Z,43.69
2018-08-20T15:50:14.364Z,43.07
2018-08-20T15:52:42.544Z,43.19
2018-08-20T15:55:10.753Z,42.19
2018-08-20T15:57:38.959Z,43.22
2018-08-20T16:00:08.408Z,42.94
2018-08-20T16:02:36.592Z,42.94
2018-08-20T16:05:04.680Z,43.05
2018-08-20T16:07:32.748Z,42.88
2018-08-20T16:10:00.819Z,43.50
2018-08-20T16:12:28.881Z,44.10
2018-08-20T16:14:56.967Z,43.84
2018-08-20T16:17:25.042Z,43.40
2018-08-20T16:19:53.117Z,45.00
2018-08-20T16:22:21.170Z,44.14
2018-08-20T16:24:49.276Z,43.91
2018-08-20T16:27:17.380Z,42.93
2018-08-20T16:29:45.436Z,42.87
2018-08-20T16:32:13.533Z,43.54
2018-08-20T16:34:41.600Z,43.36
2018-08-20T16:37:09.656Z,43.13
2018-08-20T16:39:37.963Z,42.92
2018-08-20T16:42:06.065Z,43.90
2018-08-20T16:44:34.218Z,43.04
2018-08-20T16:47:02.353Z,44.13
2018-08-20T16:49:30.513Z,44.43
2018-08-20T16:51:58.599Z,44.77
2018-08-20T16:54:26.678Z,45.43
2018-08-20T16:56:54.768Z,46.19
2018-08-20T16:59:22.877Z,45.74
2018-08-20T17:01:50.942Z,45.63
2018-08-20T17:04:30.972Z,45.57
2018-08-20T17:07:01.283Z,45.91
2018-08-20T17:09:29.887Z,46.46
2018-08-20T17:11:57.987Z,46.89
2018-08-20T17:14:26.067Z,46.46
2018-08-20T17:16:54.320Z,46.45
2018-08-20T17:19:22.459Z,46.47
2018-08-20T17:21:50.540Z,46.89
2018-08-20T17:24:26.924Z,46.95
2018-08-20T17:26:56.511Z,47.35
2018-08-20T17:29:24.624Z,46.17
2018-08-20T17:31:52.716Z,46.76
2018-08-20T17:34:20.804Z,46.69
2018-08-20T17:36:48.863Z,46.67
2018-08-20T17:39:17.156Z,46.35
2018-08-20T17:41:47.017Z,46.87
2018-08-20T17:44:15.497Z,47.39
2018-08-20T17:46:43.628Z,48.13
2018-08-20T17:49:13.119Z,47.73
2018-08-20T17:51:41.691Z,48.29
2018-08-20T17:54:10.073Z,49.40
2018-08-20T17:56:38.280Z,49.65
2018-08-20T17:59:11.334Z,49.61
2018-08-20T18:01:47.724Z,51.07
2018-08-20T18:04:19.892Z,51.42
2018-08-20T18:06:52.376Z,51.87
2018-08-20T18:09:20.589Z,51.45
2018-08-20T18:11:57.848Z,51.03
2018-08-20T18:14:26.933Z,51.72
2018-08-20T18:16:55.109Z,52.66
2018-08-20T18:19:23.271Z,53.26
2018-08-20T18:21:51.411Z,53.40
2018-08-20T18:24:21.036Z,52.44
2018-08-20T18:26:53.397Z,53.28
2018-08-20T18:29:27.383Z,53.33
2018-08-20T18:31:58.204Z,52.95
2018-08-20T18:34:27.462Z,53.13
2018-08-20T18:36:55.681Z,52.93
2018-08-20T18:39:24.677Z,53.79
2018-08-20T18:41:59.322Z,53.99
2018-08-20T18:44:27.577Z,54.18
2018-08-20T18:46:56.816Z,53.65
2018-08-20T18:49:25.036Z,54.87
2018-08-20T18:52:01.649Z,54.98
2018-08-20T18:54:34.467Z,54.86
2018-08-20T18:57:07.904Z,54.50
2018-08-20T18:59:37.283Z,55.20
2018-08-20T19:02:05.874Z,55.15
2018-08-20T19:04:40.511Z,55.05
2018-08-20T19:07:13.335Z,56.27
2018-08-20T19:09:46.373Z,56.44
2018-08-20T19:12:15.258Z,56.05
2018-08-20T19:14:43.353Z,56.06
2018-08-20T19:17:16.803Z,56.52
2018-08-20T19:19:47.640Z,56.01
2018-08-20T19:22:21.172Z,57.17
2018-08-20T19:24:50.191Z,56.60
2018-08-20T19:27:18.735Z,56.94
2018-08-20T19:29:47.120Z,57.82
2018-08-20T19:32:15.362Z,57.16
2018-08-20T19:34:44.333Z,57.22
2018-08-20T19:37:13.375Z,57.81
2018-08-20T19:39:52.912Z,57.10
2018-08-20T19:42:28.826Z,58.38
2018-08-20T19:44:57.166Z,58.52
2018-08-20T19:47:25.363Z,58.32
2018-08-20T19:49:56.023Z,59.02
2018-08-20T19:52:24.293Z,57.64
2018-08-20T19:55:00.348Z,57.86
2018-08-20T19:57:28.563Z,57.88
2018-08-20T19:59:56.840Z,57.75
2018-08-20T20:02:30.821Z,58.19
2018-08-20T20:05:04.260Z,59.72
2018-08-20T20:07:33.989Z,60.04
2018-08-20T20:10:07.300Z,60.10
2018-08-20T20:12:40.694Z,58.49
2018-08-20T20:15:09.411Z,59.00
2018-08-20T20:17:38.380Z,57.71
2018-08-20T20:20:11.061Z,56.71
2018-08-20T20:23:00.620Z,56.61
2018-08-20T20:25:28.823Z,56.11
2018-08-20T20:27:58.681Z,55.91
2018-08-20T20:30:27.701Z,56.48
2018-08-20T20:32:56.468Z,56.17
2018-08-20T20:35:24.623Z,56.05
2018-08-20T20:37:52.845Z,55.79
2018-08-20T20:40:21.625Z,56.11
2018-08-20T20:42:50.628Z,55.07
2018-08-20T20:45:19.809Z,55.12
2018-08-20T20:47:48.473Z,55.36
2018-08-20T20:50:17.565Z,55.27
2018-08-20T20:52:46.700Z,55.89
2018-08-20T20:55:17.815Z,55.44
2018-08-20T20:57:45.997Z,55.73
2018-08-20T21:00:14.657Z,56.49
2018-08-20T21:02:46.658Z,56.70
2018-08-20T21:05:15.308Z,57.08
2018-08-20T21:07:47.977Z,57.52
2018-08-20T21:10:21.260Z,57.29
2018-08-20T21:12:49.689Z,57.20
2018-08-20T21:15:25.685Z,57.26
2018-08-20T21:17:57.362Z,57.69
2018-08-20T21:20:27.169Z,57.74
2018-08-20T21:23:06.861Z,57.73
2018-08-20T21:25:37.723Z,57.63
2018-08-20T21:28:09.004Z,58.16
2018-08-20T21:30:42.636Z,58.35
2018-08-20T21:33:11.906Z,58.86
2018-08-20T21:35:41.657Z,59.51
2018-08-20T21:38:09.821Z,59.32
2018-08-20T21:40:38.479Z,59.63
2018-08-20T21:43:11.683Z,59.94
2018-08-20T21:45:40.630Z,59.40
2018-08-20T21:48:08.872Z,59.63
2018-08-20T21:50:37.985Z,59.62
2018-08-20T21:53:06.170Z,60.01
2018-08-20T21:55:34.656Z,59.95
2018-08-20T21:58:02.777Z,59.59
2018-08-20T22:00:31.012Z,59.79
2018-08-20T22:03:02.331Z,59.19
2018-08-20T22:05:30.778Z,59.42
2018-08-20T22:07:59.969Z,59.87
2018-08-20T22:10:30.321Z,59.70
2018-08-20T22:12:58.841Z,59.94
2018-08-20T22:15:26.909Z,59.67
2018-08-20T22:17:55.015Z,59.83
2018-08-20T22:20:23.212Z,60.07
2018-08-20T22:22:51.275Z,60.51
2018-08-20T22:25:19.342Z,60.45
2018-08-20T22:27:52.703Z,60.74
2018-08-20T22:30:20.775Z,60.73
2018-08-20T22:32:48.843Z,60.86
2018-08-20T22:35:22.184Z,60.55
2018-08-20T22:37:51.148Z,61.34
2018-08-20T22:40:19.759Z,61.40
2018-08-20T22:42:50.229Z,61.32
2018-08-20T22:45:19.465Z,61.05
2018-08-20T22:47:48.384Z,61.98
2018-08-20T22:50:16.500Z,61.49
2018-08-20T22:52:45.913Z,61.72
2018-08-20T22:55:15.520Z,61.89
2018-08-20T22:57:49.954Z,61.80
2018-08-20T23:00:24.173Z,62.16
2018-08-20T23:02:53.552Z,61.83
2018-08-20T23:05:21.626Z,62.21
2018-08-20T23:07:49.767Z,62.42
2018-08-20T23:10:17.837Z,61.75
2018-08-20T23:12:45.906Z,62.40
2018-08-20T23:15:14.442Z,62.40
2018-08-20T23:17:42.563Z,62.36
2018-08-20T23:20:17.587Z,62.61
2018-08-20T23:22:45.820Z,62.08
2018-08-20T23:25:14.043Z,62.19
2018-08-20T23:27:42.267Z,62.89
2018-08-20T23:30:11.415Z,62.59
2018-08-20T23:32:39.591Z,62.46
2018-08-20T23:35:07.692Z,62.55
2018-08-20T23:37:35.995Z,62.78
2018-08-20T23:40:04.735Z,62.80
2018-08-20T23:42:32.808Z,63.61
2018-08-20T23:45:00.877Z,64.27
2018-08-20T23:47:28.956Z,64.13
2018-08-20T23:49:57.088Z,63.46
2018-08-20T23:52:25.146Z,63.10
2018-08-20T23:54:53.224Z,63.38
2018-08-20T23:57:21.296Z,63.03
2018-08-20T23:59:49.387Z,63.13
